createdAt,value
2022-12-06T00:02:01.608Z,101718.13
2022-12-06T00:06:16.280Z,101714.47
2022-12-06T00:10:27.963Z,101715.28
2022-12-06T00:14:39.495Z,101718.59
2022-12-06T00:18:51.840Z,101713.91
2022-12-06T00:23:03.393Z,101705.63
2022-12-06T00:27:21.523Z,101701.63
2022-12-06T00:31:35.739Z,101701.78
2022-12-06T00:36:14.791Z,101691.13
2022-12-06T00:40:26.270Z,101699.78
2022-12-06T00:44:37.827Z,101699.13
2022-12-06T00:48:50.799Z,101694.44
2022-12-06T00:53:02.312Z,101692.13
2022-12-06T00:57:13.793Z,101696.31
2022-12-06T01:01:28.056Z,101704.66
2022-12-06T01:05:41.498Z,101697.84
2022-12-06T01:09:53.097Z,101700.69
2022-12-06T01:14:05.002Z,101697.53
2022-12-06T01:18:16.751Z,101709.69
2022-12-06T01:22:28.447Z,101702.19
2022-12-06T01:26:39.959Z,101699.53
2022-12-06T01:30:51.474Z,101708.38
2022-12-06T01:35:03.690Z,101709.19
2022-12-06T01:39:15.485Z,101709.53
2022-12-06T01:43:37.775Z,101708.53
2022-12-06T01:47:50.023Z,101700.38
2022-12-06T01:52:09.322Z,101700.38
2022-12-06T01:56:21.584Z,101699.88
2022-12-06T02:00:33.250Z,101695.03
2022-12-06T02:04:44.916Z,101689.84
2022-12-06T02:08:58.950Z,101696.69
2022-12-06T02:13:10.483Z,101684.84
2022-12-06T02:17:34.510Z,101683.19
2022-12-06T02:21:52.309Z,101681.34
2022-12-06T02:26:12.864Z,101686.03
2022-12-06T02:30:51.182Z,101676.69
2022-12-06T02:35:11.761Z,101673.00
2022-12-06T02:39:47.379Z,101674.69
2022-12-06T02:44:04.701Z,101675.84
2022-12-06T02:48:18.382Z,101676.34
2022-12-06T02:52:32.154Z,101673.06
2022-12-06T02:56:43.708Z,101680.69
2022-12-06T03:01:01.778Z,101669.56
2022-12-06T03:05:28.964Z,101673.53
2022-12-06T03:09:40.404Z,101674.22
2022-12-06T03:14:04.110Z,101675.22
2022-12-06T03:18:50.298Z,101668.22
2022-12-06T03:23:06.541Z,101668.91
2022-12-06T03:27:21.272Z,101666.09
2022-12-06T03:31:35.879Z,101673.91
2022-12-06T03:35:50.162Z,101674.25
2022-12-06T03:40:17.917Z,101670.78
2022-12-06T03:44:29.722Z,101663.44
2022-12-06T03:48:47.500Z,101665.59
2022-12-06T03:53:01.026Z,101653.78
2022-12-06T03:57:12.582Z,101663.28
2022-12-06T04:01:24.237Z,101660.78
2022-12-06T04:05:35.762Z,101661.09
2022-12-06T04:10:03.180Z,101666.44
2022-12-06T04:14:15.174Z,101671.91
2022-12-06T04:18:27.655Z,101669.25
2022-12-06T04:22:57.838Z,101669.25
2022-12-06T04:27:27.964Z,101664.44
2022-12-06T04:31:59.251Z,101667.09
2022-12-06T04:36:29.769Z,101677.94
2022-12-06T04:40:41.285Z,101665.13
2022-12-06T04:44:52.967Z,101665.13
2022-12-06T04:49:04.954Z,101666.28
2022-12-06T04:53:17.392Z,101664.44
2022-12-06T04:57:28.881Z,101656.44
2022-12-06T05:01:40.521Z,101667.59
2022-12-06T05:05:52.194Z,101653.78
2022-12-06T05:10:04.184Z,101659.13
2022-12-06T05:14:15.725Z,101658.44
2022-12-06T05:18:28.329Z,101660.78
2022-12-06T05:22:40.332Z,101669.94
2022-12-06T05:26:51.921Z,101657.94
2022-12-06T05:31:04.263Z,101667.09
2022-12-06T05:35:15.842Z,101659.59
2022-12-06T05:39:27.398Z,101662.59
2022-12-06T05:43:39.248Z,101644.44
2022-12-06T05:47:50.758Z,101647.78
2022-12-06T05:52:04.162Z,101652.09
2022-12-06T05:56:15.985Z,101649.94
2022-12-06T06:00:27.571Z,101661.78
2022-12-06T06:04:39.098Z,101658.28
2022-12-06T06:08:52.635Z,101664.28
2022-12-06T06:13:29.112Z,101668.78
2022-12-06T06:17:41.431Z,101658.78
2022-12-06T06:21:53.001Z,101663.63
2022-12-06T06:26:09.041Z,101669.78
2022-12-06T06:30:20.760Z,101666.94
2022-12-06T06:34:32.365Z,101650.44
2022-12-06T06:38:43.919Z,101667.94
2022-12-06T06:42:55.953Z,101667.13
2022-12-06T06:47:07.940Z,101668.78
2022-12-06T06:51:19.570Z,101654.81
2022-12-06T06:55:31.177Z,101654.81
2022-12-06T06:59:43.145Z,101655.94
2022-12-06T07:03:54.645Z,101666.78
2022-12-06T07:08:06.394Z,101647.97
2022-12-06T07:12:18.355Z,101670.78
2022-12-06T07:16:30.003Z,101652.47
2022-12-06T07:20:41.556Z,101673.44
2022-12-06T07:24:53.675Z,101652.78
2022-12-06T07:29:05.299Z,101648.94
2022-12-06T07:33:16.872Z,101653.44
2022-12-06T07:37:28.500Z,101668.63
2022-12-06T07:41:58.609Z,101669.09
2022-12-06T07:46:25.582Z,101660.63
2022-12-06T07:50:37.268Z,101664.78
2022-12-06T07:54:49.006Z,101655.78
2022-12-06T07:59:01.172Z,101655.13
2022-12-06T08:03:12.772Z,101654.44
2022-12-06T08:07:25.340Z,101669.44
2022-12-06T08:11:37.006Z,101655.94
2022-12-06T08:15:48.791Z,101621.16
2022-12-06T08:20:00.747Z,101661.94
2022-12-06T08:24:12.599Z,101666.78
2022-12-06T08:28:24.472Z,101671.28
2022-12-06T08:32:36.087Z,101680.44
2022-12-06T08:36:47.715Z,101680.13
2022-12-06T08:40:59.578Z,101677.13
2022-12-06T08:45:11.509Z,101681.47
2022-12-06T08:49:25.125Z,101678.28
2022-12-06T08:53:36.657Z,101666.63
2022-12-06T08:57:48.277Z,101672.81
2022-12-06T09:01:59.875Z,101670.63
2022-12-06T09:06:12.019Z,101675.47
2022-12-06T09:10:23.697Z,101694.94
2022-12-06T09:14:35.407Z,101689.28
2022-12-06T09:18:47.915Z,101694.53
2022-12-06T09:22:59.407Z,101696.13
2022-12-06T09:27:10.940Z,101695.16
2022-12-06T09:31:23.135Z,101704.72
2022-12-06T09:35:35.797Z,101688.63
2022-12-06T09:39:52.019Z,101684.28
2022-12-06T09:44:25.192Z,101700.22
2022-12-06T09:49:06.946Z,101697.28
2022-12-06T09:53:53.121Z,101696.16
2022-12-06T09:58:16.639Z,101699.81
2022-12-06T10:02:34.432Z,101691.13
2022-12-06T10:06:59.020Z,101688.00
2022-12-06T10:11:32.295Z,101677.72
2022-12-06T10:15:53.234Z,101669.31
2022-12-06T10:20:34.892Z,101664.28
2022-12-06T10:25:08.647Z,101670.56
2022-12-06T10:29:32.084Z,101665.66
2022-12-06T10:33:55.281Z,101662.28
2022-12-06T10:38:23.057Z,101664.25
2022-12-06T10:42:47.923Z,101676.00
2022-12-06T10:47:06.278Z,101657.88
2022-12-06T10:51:37.164Z,101676.06
2022-12-06T10:55:54.838Z,101663.06
2022-12-06T11:00:20.681Z,101653.00
2022-12-06T11:04:36.804Z,101650.69
2022-12-06T11:08:58.412Z,101648.66
2022-12-06T11:13:19.887Z,101644.50
2022-12-06T11:17:37.012Z,101657.81
2022-12-06T11:22:05.939Z,101636.31
2022-12-06T11:26:30.848Z,101626.16
2022-12-06T11:30:42.419Z,101636.81
2022-12-06T11:34:56.811Z,101639.03
2022-12-06T11:39:10.928Z,101629.13
2022-12-06T11:43:29.448Z,101635.66
2022-12-06T11:47:41.135Z,101643.69
2022-12-06T11:51:53.482Z,101626.47
2022-12-06T11:56:20.094Z,101629.59
2022-12-06T12:00:31.675Z,101630.69
2022-12-06T12:04:44.860Z,101608.22
2022-12-06T12:09:18.597Z,101600.53
2022-12-06T12:13:46.612Z,101615.41
2022-12-06T12:17:59.876Z,101617.38
2022-12-06T12:22:24.084Z,101604.75
2022-12-06T12:26:41.651Z,101619.19
2022-12-06T12:30:55.751Z,101607.34
2022-12-06T12:35:22.781Z,101611.59
2022-12-06T12:39:47.426Z,101602.66
2022-12-06T12:44:36.378Z,101602.53
2022-12-06T12:48:47.022Z,101606.28
2022-12-06T12:52:59.127Z,101591.38
2022-12-06T12:57:14.492Z,101591.13
2022-12-06T13:01:34.428Z,101592.91
2022-12-06T13:05:49.390Z,101577.16
2022-12-06T13:10:12.371Z,101578.16
2022-12-06T13:14:26.001Z,101569.38
2022-12-06T13:18:51.095Z,101575.09
2022-12-06T13:23:15.391Z,101574.22
2022-12-06T13:27:31.003Z,101566.47
2022-12-06T13:31:42.728Z,101563.94
2022-12-06T13:36:04.902Z,101568.00
2022-12-06T13:40:35.093Z,101564.03
2022-12-06T13:45:01.839Z,101557.66
2022-12-06T13:49:26.318Z,101562.53
2022-12-06T13:54:06.920Z,101565.03
2022-12-06T13:58:18.271Z,101568.63
2022-12-06T14:02:44.809Z,101558.97
2022-12-06T14:07:02.690Z,101551.31
2022-12-06T14:11:29.045Z,101563.41
2022-12-06T14:15:41.120Z,101555.09
2022-12-06T14:19:54.066Z,101552.59
2022-12-06T14:24:05.987Z,101553.00
2022-12-06T14:28:18.915Z,101555.66
2022-12-06T14:32:37.123Z,101548.00
2022-12-06T14:36:48.966Z,101547.09
2022-12-06T14:41:19.147Z,101541.75
2022-12-06T14:45:33.464Z,101537.88
2022-12-06T14:50:10.168Z,101517.03
2022-12-06T14:54:27.736Z,101529.94
2022-12-06T14:58:45.150Z,101517.75
2022-12-06T15:03:03.312Z,101524.13
2022-12-06T15:07:31.681Z,101518.69
2022-12-06T15:12:02.334Z,101524.13
2022-12-06T15:16:15.216Z,101520.13
2022-12-06T15:20:26.725Z,101512.69
2022-12-06T15:24:38.260Z,101520.13
2022-12-06T15:28:50.367Z,101518.50
2022-12-06T15:33:01.818Z,101518.41
2022-12-06T15:37:38.100Z,101515.38
2022-12-06T15:41:47.063Z,101520.34
2022-12-06T15:46:03.658Z,101511.69
2022-12-06T15:50:15.510Z,101501.72
2022-12-06T15:54:27.019Z,101503.31
2022-12-06T15:58:38.551Z,101489.94
2022-12-06T16:02:50.224Z,101508.09
2022-12-06T16:07:01.902Z,101516.66
2022-12-06T16:11:15.989Z,101508.66
2022-12-06T16:15:27.493Z,101484.56
2022-12-06T16:20:02.104Z,101501.72
2022-12-06T16:24:14.692Z,101504.19
2022-12-06T16:28:27.052Z,101503.84
2022-12-06T16:32:38.569Z,101504.56
2022-12-06T16:37:00.818Z,101508.06
2022-12-06T16:41:19.778Z,101503.66
2022-12-06T16:45:35.225Z,101504.91
2022-12-06T16:49:48.515Z,101496.06
2022-12-06T16:54:02.736Z,101506.59
2022-12-06T16:58:16.720Z,101502.06
2022-12-06T17:02:32.288Z,101491.56
2022-12-06T17:06:44.050Z,101487.88
2022-12-06T17:11:15.553Z,101479.69
2022-12-06T17:15:27.032Z,101487.06
2022-12-06T17:19:38.631Z,101478.38
2022-12-06T17:23:50.208Z,101480.88
2022-12-06T17:28:01.664Z,101481.06
2022-12-06T17:32:13.803Z,101476.72
2022-12-06T17:36:26.042Z,101477.94
2022-12-06T17:40:37.489Z,101475.16
2022-12-06T17:44:50.828Z,101469.25
2022-12-06T17:49:03.176Z,101466.19
2022-12-06T17:53:14.665Z,101456.59
2022-12-06T17:57:26.209Z,101461.44
2022-12-06T18:02:12.973Z,101474.44
2022-12-06T18:06:10.708Z,101469.41
2022-12-06T18:10:22.525Z,101465.81
2022-12-06T18:14:34.043Z,101453.38
2022-12-06T18:18:46.925Z,101460.63
2022-12-06T18:22:58.406Z,101456.72
2022-12-06T18:27:09.918Z,101454.09
2022-12-06T18:31:22.388Z,101449.50
2022-12-06T18:35:35.987Z,101449.56
2022-12-06T18:39:47.458Z,101450.91
2022-12-06T18:44:03.628Z,101455.13
2022-12-06T18:48:15.149Z,101448.84
2022-12-06T18:52:27.971Z,101457.81
2022-12-06T18:56:39.531Z,101448.41
2022-12-06T19:00:51.093Z,101454.53
2022-12-06T19:05:02.945Z,101440.47
2022-12-06T19:09:15.648Z,101437.56
2022-12-06T19:13:27.113Z,101439.41
2022-12-06T19:17:38.603Z,101436.91
2022-12-06T19:21:52.295Z,101444.63
2022-12-06T19:26:04.610Z,101439.22
2022-12-06T19:30:16.535Z,101445.09
2022-12-06T19:34:29.350Z,101439.66
2022-12-06T19:38:41.022Z,101444.81
2022-12-06T19:43:11.115Z,101451.91
2022-12-06T19:47:22.732Z,101446.06
2022-12-06T19:51:39.064Z,101449.69
2022-12-06T19:55:50.511Z,101446.63
2022-12-06T20:00:02.113Z,101447.00
2022-12-06T20:04:31.264Z,101453.28
2022-12-06T20:08:44.687Z,101451.13
2022-12-06T20:12:56.180Z,101454.28
2022-12-06T20:17:13.877Z,101443.13
2022-12-06T20:21:25.497Z,101454.09
2022-12-06T20:25:37.167Z,101458.44
2022-12-06T20:29:48.852Z,101453.75
2022-12-06T20:34:02.798Z,101453.09
2022-12-06T20:38:14.275Z,101455.63
2022-12-06T20:42:26.488Z,101446.88
2022-12-06T20:46:38.066Z,101450.44
2022-12-06T20:50:49.627Z,101437.16
2022-12-06T20:55:01.205Z,101444.84
2022-12-06T20:59:12.692Z,101445.69
2022-12-06T21:03:24.187Z,101445.16
2022-12-06T21:07:35.778Z,101435.97
2022-12-06T21:11:48.012Z,101439.97
2022-12-06T21:16:13.761Z,101442.16
2022-12-06T21:20:25.351Z,101430.66
2022-12-06T21:24:36.959Z,101439.66
2022-12-06T21:28:48.545Z,101428.31
2022-12-06T21:33:00.173Z,101430.50
2022-12-06T21:37:11.713Z,101438.41
2022-12-06T21:41:23.518Z,101444.16
2022-12-06T21:45:39.274Z,101434.16
2022-12-06T21:49:50.861Z,101429.03
2022-12-06T21:54:02.516Z,101441.06
2022-12-06T21:58:14.103Z,101447.75
2022-12-06T22:02:25.919Z,101440.31
2022-12-06T22:06:37.646Z,101426.69
2022-12-06T22:10:52.590Z,101427.41
2022-12-06T22:15:04.491Z,101432.28
2022-12-06T22:19:16.223Z,101434.16
2022-12-06T22:23:29.422Z,101436.00
2022-12-06T22:27:41.083Z,101434.56
2022-12-06T22:31:52.787Z,101437.75
2022-12-06T22:36:04.871Z,101430.13
2022-12-06T22:40:16.538Z,101437.13
2022-12-06T22:44:28.155Z,101445.81
2022-12-06T22:48:40.728Z,101433.81
2022-12-06T22:52:52.269Z,101435.00
2022-12-06T22:57:03.900Z,101433.50
2022-12-06T23:01:18.226Z,101456.25
2022-12-06T23:05:29.834Z,101455.75
2022-12-06T23:09:41.493Z,101449.25
2022-12-06T23:13:54.791Z,101430.63
2022-12-06T23:18:06.329Z,101436.78
2022-12-06T23:22:17.950Z,101452.94
2022-12-06T23:26:35.767Z,101447.09
2022-12-06T23:30:47.338Z,101448.47
2022-12-06T23:34:58.927Z,101443.78
2022-12-06T23:39:11.601Z,101449.31
2022-12-06T23:43:23.279Z,101447.59
2022-12-06T23:47:34.878Z,101454.09
2022-12-06T23:51:47.240Z,101442.44
2022-12-06T23:56:00.095Z,101438.44
